Beallsville, OH (43716)

2:44 AM EDT on June 23, 2017 (GMT -0400)
Jerusalem | | Change Station
Active Advisory: Flash Flood Watch Active Notice: Flash Flood Watch

Elev 1253 ft 39.86 °N, 81.11 °W | Updated 10 seconds ago

Rain
Rain
68.7 °F
Feels Like 68.7 °F
N
7.4
Wind Variable Wind from SSW
Gusts 10.0 mph

Today
High -- | Low -- °F
--% Chance of Precip.
Yesterday
High -- | Low -- °F
Precip. -- in
Pressure 29.88 in
Visibility 10.0 miles
Clouds Few 2100 ft
Mostly Cloudy 4500 ft
Overcast 9500 ft
Dew Point 68 °F
Humidity 96%
Rainfall 0.20 in
Snow Depth Not available.
5:56 AM 8:56 PM
Waning Crescent, 1% visible
METAR KHLG 230553Z AUTO 19009KT 10SM -RA FEW021 BKN045 OVC095 22/19 A2991 RMK AO2 RAB42 SLP119 P0001 60011 T02170189 10256 20217 58019
Pressure 29.88 in
Visibility 10.0 miles
Clouds Few 2100 ft
Mostly Cloudy 4500 ft
Overcast 9500 ft
Dew Point 68 °F
Humidity 96%
Rainfall 0.20 in
Snow Depth Not available.
5:56 AM 8:56 PM
Waning Crescent, 1% visible
METAR KHLG 230553Z AUTO 19009KT 10SM -RA FEW021 BKN045 OVC095 22/19 A2991 RMK AO2 RAB42 SLP119 P0001 60011 T02170189 10256 20217 58019

Get Your Daily Forecast Email!

Thanks for signing up!

Be on the lookout for a verification email in your inbox.

You'll start receiving severe weather alerts in your inbox..

×

10-Day Weather Forecast

Almanac

Astronomy

Jun. 23, 2017 Rise Set
Actual Time
Civil Twilight
Nautical Twilight
Astronomical Twilight
Moon
Length of Visible Light
Length of Day
Tomorrow will be .
, % of the Moon is Illuminated

Today's Extremes

State Highs State Lows

Community

WunderPhotos

Category 6

Welcome to Category 6. This is the collective home for Weather Underground's featured writeups by Dr. Jeff Masters (right), Bob Henson (left), Chris Burt, and other regular contributors.

Nearby

Air Quality

  Air Quality AQ Index Pollutant
Not available.

Snow Depth

Station Depth Elevation

Earthquake Activity

City Distance Mag. Time & Date
Minimum magnitude displayed is 2.5.

Coastal Water Temperatures

Place Temperature

Stations

Nearby Weather Stations

Station Location Temp. Windchill Dew Point Humidity Wind Precip. Elev Updated Type
                   

Watches & Warnings

Flash Flood Watch
Issued: 2:32 AM EDT Jun. 23, 2017 – National Weather Service

... Flash Flood Watch remains in effect through late tonight...

The Flash Flood Watch continues for

* portions of western Maryland, east central Ohio, southwestern
Pennsylvania, and West Virginia.

* Through late tonight

* rainfall amounts up to 2.5 inches are possible due to the
remnants of Cindy and an approaching cold front.

* There could be flooded roads along with streams and creeks out
of their banks.

Precautionary/preparedness actions...

A Flash Flood Watch means that conditions may develop that lead
to flash flooding. Flash flooding is a very dangerous situation.

You should monitor later forecasts and be prepared to take action
should flash flood warnings be issued.